createdAt,value
2023-04-16T00:01:20.709Z,7.20
2023-04-16T00:03:49.605Z,7.20
2023-04-16T00:06:18.428Z,7.10
2023-04-16T00:08:47.011Z,7.10
2023-04-16T00:11:15.796Z,7.10
2023-04-16T00:13:46.523Z,7.10
2023-04-16T00:16:14.973Z,7.10
2023-04-16T00:18:45.347Z,7.10
2023-04-16T00:21:14.225Z,7.10
2023-04-16T00:23:42.766Z,7.10
2023-04-16T00:26:11.550Z,7.20
2023-04-16T00:28:43.032Z,7.10
2023-04-16T00:31:11.897Z,7.10
2023-04-16T00:33:40.382Z,7.20
2023-04-16T00:36:11.447Z,7.20
2023-04-16T00:38:39.880Z,7.20
2023-04-16T00:41:08.337Z,7.20
2023-04-16T00:43:36.986Z,7.20
2023-04-16T00:46:07.670Z,7.10
2023-04-16T00:48:37.657Z,7.10
2023-04-16T00:51:07.588Z,7.10
2023-04-16T00:53:38.201Z,7.10
2023-04-16T00:56:08.522Z,7.10
2023-04-16T00:58:37.599Z,7.10
2023-04-16T01:01:06.268Z,7.10
2023-04-16T01:03:40.773Z,7.10
2023-04-16T01:06:10.038Z,7.10
2023-04-16T01:08:40.161Z,7.10
2023-04-16T01:11:09.121Z,7.10
2023-04-16T01:13:40.045Z,7.10
2023-04-16T01:16:09.505Z,7.10
2023-04-16T01:18:38.457Z,7.10
2023-04-16T01:21:10.157Z,7.10
2023-04-16T01:23:39.411Z,7.00
2023-04-16T01:26:08.126Z,7.00
2023-04-16T01:28:37.317Z,7.00
2023-04-16T01:31:05.937Z,7.00
2023-04-16T01:33:34.659Z,7.00
2023-04-16T01:36:03.381Z,7.00
2023-04-16T01:38:33.437Z,7.00
2023-04-16T01:41:02.324Z,6.90
2023-04-16T01:43:31.187Z,7.00
2023-04-16T01:46:15.438Z,7.00
2023-04-16T01:48:44.501Z,7.00
2023-04-16T01:51:14.731Z,7.00
2023-04-16T01:53:44.950Z,6.90
2023-04-16T01:56:13.523Z,6.90
2023-04-16T01:58:42.932Z,6.90
2023-04-16T02:01:11.747Z,6.90
2023-04-16T02:03:40.890Z,6.90
2023-04-16T02:06:09.797Z,6.90
2023-04-16T02:08:39.896Z,6.90
2023-04-16T02:11:09.874Z,7.00
2023-04-16T02:13:38.770Z,6.90
2023-04-16T02:16:07.674Z,7.00
2023-04-16T02:18:36.032Z,7.00
2023-04-16T02:21:06.775Z,6.90
2023-04-16T02:23:35.345Z,6.90
2023-04-16T02:26:05.561Z,6.90
2023-04-16T02:28:35.796Z,6.90
2023-04-16T02:31:06.048Z,6.90
2023-04-16T02:33:36.257Z,6.90
2023-04-16T02:36:04.756Z,6.90
2023-04-16T02:38:33.324Z,6.90
2023-04-16T02:41:01.919Z,6.90
2023-04-16T02:43:30.587Z,6.90
2023-04-16T02:46:00.769Z,6.90
2023-04-16T02:48:29.688Z,7.00
2023-04-16T02:50:58.117Z,7.00
2023-04-16T02:53:27.021Z,6.90
2023-04-16T02:55:56.706Z,6.90
2023-04-16T02:58:26.437Z,6.90
2023-04-16T03:00:55.914Z,7.00
2023-04-16T03:03:26.042Z,7.00
2023-04-16T03:05:54.518Z,7.00
2023-04-16T03:08:23.534Z,7.00
2023-04-16T03:10:52.163Z,7.00
2023-04-16T03:13:20.557Z,7.00
2023-04-16T03:15:51.210Z,7.00
2023-04-16T03:18:20.130Z,7.00
2023-04-16T03:20:53.661Z,7.00
2023-04-16T03:23:23.192Z,7.00
2023-04-16T03:25:51.978Z,7.00
2023-04-16T03:28:20.693Z,7.00
2023-04-16T03:30:53.101Z,6.90
2023-04-16T03:33:22.957Z,7.00
2023-04-16T03:35:58.622Z,7.00
2023-04-16T03:38:27.940Z,7.00
2023-04-16T03:40:56.432Z,7.00
2023-04-16T03:43:24.988Z,7.10
2023-04-16T03:45:53.436Z,7.00
2023-04-16T03:48:22.219Z,7.00
2023-04-16T03:50:50.959Z,7.00
2023-04-16T03:53:21.135Z,7.00
2023-04-16T03:55:52.652Z,7.00
2023-04-16T03:58:21.487Z,7.00
2023-04-16T04:00:50.252Z,7.10
2023-04-16T04:03:19.218Z,7.10
2023-04-16T04:05:47.828Z,7.10
2023-04-16T04:08:16.600Z,7.10
2023-04-16T04:10:47.279Z,7.10
2023-04-16T04:13:15.868Z,7.10
2023-04-16T04:15:45.639Z,7.10
2023-04-16T04:18:14.087Z,7.10
2023-04-16T04:20:42.576Z,7.10
2023-04-16T04:23:11.058Z,7.10
2023-04-16T04:25:39.525Z,7.10
2023-04-16T04:28:10.242Z,7.10
2023-04-16T04:30:38.947Z,7.10
2023-04-16T04:33:07.356Z,7.20
2023-04-16T04:35:36.104Z,7.10
2023-04-16T04:38:05.193Z,7.20
2023-04-16T04:40:33.669Z,7.20
2023-04-16T04:43:02.170Z,7.20
2023-04-16T04:45:32.633Z,7.20
2023-04-16T04:48:01.218Z,7.20
2023-04-16T04:50:30.060Z,7.20
2023-04-16T04:52:58.666Z,7.30
2023-04-16T04:55:27.253Z,7.30
2023-04-16T04:57:56.200Z,7.30
2023-04-16T05:00:25.116Z,7.30
2023-04-16T05:02:55.271Z,7.30
2023-04-16T05:05:23.752Z,7.30
2023-04-16T05:07:52.570Z,7.30
2023-04-16T05:10:21.195Z,7.40
2023-04-16T05:12:50.305Z,7.40
2023-04-16T05:15:18.834Z,7.40
2023-04-16T05:17:47.513Z,7.40
2023-04-16T05:20:18.106Z,7.40
2023-04-16T05:22:46.629Z,7.40
2023-04-16T05:25:15.329Z,7.40
2023-04-16T05:27:43.757Z,7.40
2023-04-16T05:30:13.133Z,7.40
2023-04-16T05:32:42.386Z,7.40
2023-04-16T05:35:11.519Z,7.50
2023-04-16T05:37:41.288Z,7.50
2023-04-16T05:40:11.248Z,7.50
2023-04-16T05:42:40.063Z,7.40
2023-04-16T05:45:09.874Z,7.50
2023-04-16T05:47:38.595Z,7.50
2023-04-16T05:50:08.462Z,7.50
2023-04-16T05:52:36.943Z,7.50
2023-04-16T05:55:07.720Z,7.50
2023-04-16T05:57:36.366Z,7.50
2023-04-16T06:00:05.589Z,7.50
2023-04-16T06:02:34.368Z,7.50
2023-04-16T06:05:03.149Z,7.50
2023-04-16T06:07:31.694Z,7.50
2023-04-16T06:10:00.164Z,7.60
2023-04-16T06:12:30.091Z,7.60
2023-04-16T06:14:58.813Z,7.60
2023-04-16T06:17:27.297Z,7.60
2023-04-16T06:19:55.762Z,7.50
2023-04-16T06:22:27.427Z,7.50
2023-04-16T06:24:55.878Z,7.50
2023-04-16T06:27:24.826Z,7.60
2023-04-16T06:29:54.879Z,7.50
2023-04-16T06:32:23.649Z,7.60
2023-04-16T06:34:52.353Z,7.60
2023-04-16T06:37:21.015Z,7.60
2023-04-16T06:39:49.615Z,7.60
2023-04-16T06:42:18.206Z,7.60
2023-04-16T06:44:46.988Z,7.60
2023-04-16T06:47:17.439Z,7.60
2023-04-16T06:49:46.246Z,7.80
2023-04-16T06:52:15.070Z,7.60
2023-04-16T06:54:43.985Z,7.50
2023-04-16T06:57:15.566Z,7.50
2023-04-16T06:59:44.244Z,7.50
2023-04-16T07:02:13.002Z,7.60
2023-04-16T07:04:43.450Z,7.60
2023-04-16T07:07:13.255Z,7.50
2023-04-16T07:09:42.309Z,7.60
2023-04-16T07:12:11.978Z,7.60
2023-04-16T07:14:41.115Z,7.60
2023-04-16T07:17:11.371Z,7.60
2023-04-16T07:19:40.272Z,7.60
2023-04-16T07:22:10.343Z,7.50
2023-04-16T07:24:38.790Z,7.60
2023-04-16T07:27:07.312Z,7.60
2023-04-16T07:29:36.138Z,7.60
2023-04-16T07:32:05.176Z,7.70
2023-04-16T07:34:33.985Z,7.60
2023-04-16T07:37:03.426Z,7.60
2023-04-16T07:39:33.235Z,7.60
2023-04-16T07:42:02.465Z,7.60
2023-04-16T07:44:31.569Z,7.60
2023-04-16T07:47:00.390Z,7.60
2023-04-16T07:49:29.193Z,7.60
2023-04-16T07:51:58.532Z,7.60
2023-04-16T07:54:29.002Z,7.70
2023-04-16T07:56:59.358Z,7.70
2023-04-16T07:59:27.916Z,7.70
2023-04-16T08:01:56.735Z,7.70
2023-04-16T08:04:26.735Z,7.70
2023-04-16T08:06:55.848Z,7.70
2023-04-16T08:09:29.941Z,7.70
2023-04-16T08:12:01.542Z,7.70
2023-04-16T08:14:30.318Z,7.70
2023-04-16T08:16:59.166Z,7.80
2023-04-16T08:19:28.047Z,7.80
2023-04-16T08:21:58.232Z,7.80
2023-04-16T08:24:27.782Z,7.90
2023-04-16T08:27:02.496Z,7.80
2023-04-16T08:29:41.541Z,7.80
2023-04-16T08:32:10.290Z,7.90
2023-04-16T08:34:40.863Z,7.90
2023-04-16T08:37:09.736Z,7.90
2023-04-16T08:39:38.447Z,7.90
2023-04-16T08:42:11.755Z,7.90
2023-04-16T08:44:49.536Z,7.90
2023-04-16T08:47:18.538Z,8.00
2023-04-16T08:49:47.498Z,8.00
2023-04-16T08:52:19.870Z,8.00
2023-04-16T08:54:56.546Z,8.00
2023-04-16T08:57:28.496Z,8.00
2023-04-16T08:59:59.429Z,8.10
2023-04-16T09:02:28.843Z,8.10
2023-04-16T09:05:01.220Z,8.10
2023-04-16T09:07:31.124Z,8.10
2023-04-16T09:10:02.034Z,8.10
2023-04-16T09:12:32.367Z,8.10
2023-04-16T09:15:03.712Z,8.20
2023-04-16T09:17:32.498Z,8.10
2023-04-16T09:20:01.401Z,8.20
2023-04-16T09:22:32.203Z,8.20
2023-04-16T09:25:01.281Z,8.30
2023-04-16T09:27:31.046Z,8.30
2023-04-16T09:29:59.917Z,8.30
2023-04-16T09:32:30.716Z,8.30
2023-04-16T09:35:01.466Z,8.30
2023-04-16T09:37:32.010Z,8.40
2023-04-16T09:40:02.241Z,8.40
2023-04-16T09:42:33.770Z,8.40
2023-04-16T09:45:04.966Z,8.40
2023-04-16T09:47:44.079Z,8.40
2023-04-16T09:50:20.166Z,8.40
2023-04-16T09:52:52.094Z,8.40
2023-04-16T09:55:24.840Z,8.40
2023-04-16T09:58:01.740Z,8.40
2023-04-16T10:00:32.306Z,8.50
2023-04-16T10:03:08.802Z,8.50
2023-04-16T10:05:37.719Z,8.50
2023-04-16T10:08:15.377Z,8.50
2023-04-16T10:10:44.064Z,8.60
2023-04-16T10:13:17.864Z,8.60
2023-04-16T10:15:46.726Z,8.60
2023-04-16T10:18:18.049Z,8.70
2023-04-16T10:20:48.895Z,8.70
2023-04-16T10:23:17.620Z,8.70
2023-04-16T10:25:46.425Z,8.70
2023-04-16T10:28:16.789Z,8.80
2023-04-16T10:30:52.989Z,8.90
2023-04-16T10:33:25.868Z,8.90
2023-04-16T10:36:08.356Z,8.90
2023-04-16T10:38:39.757Z,8.80
2023-04-16T10:41:09.561Z,8.80
2023-04-16T10:43:42.803Z,8.80
2023-04-16T10:46:20.754Z,8.80
2023-04-16T10:48:52.303Z,8.90
2023-04-16T10:51:29.769Z,8.80
2023-04-16T10:53:59.763Z,8.90
2023-04-16T10:56:29.186Z,8.90
2023-04-16T10:58:57.942Z,8.90
2023-04-16T11:01:34.316Z,8.80
2023-04-16T11:04:31.910Z,8.80
2023-04-16T11:07:08.706Z,8.80
2023-04-16T11:09:48.423Z,8.90
2023-04-16T11:12:18.850Z,8.90
2023-04-16T11:14:52.785Z,8.90
2023-04-16T11:17:22.426Z,8.90
2023-04-16T11:19:53.679Z,8.90
2023-04-16T11:22:22.542Z,9.00
2023-04-16T11:24:57.240Z,9.00
2023-04-16T11:27:26.744Z,9.00
2023-04-16T11:30:04.537Z,9.00
2023-04-16T11:32:34.640Z,9.00
2023-04-16T11:35:06.363Z,9.10
2023-04-16T11:37:35.846Z,9.10
2023-04-16T11:40:06.940Z,9.10
2023-04-16T11:42:37.546Z,9.20
2023-04-16T11:45:07.001Z,9.20
2023-04-16T11:47:48.001Z,9.20
2023-04-16T11:50:23.529Z,9.20
2023-04-16T11:52:53.340Z,9.20
2023-04-16T11:55:22.767Z,9.20
2023-04-16T11:57:52.882Z,9.20
2023-04-16T12:00:24.870Z,9.20
2023-04-16T12:02:54.938Z,9.20
2023-04-16T12:05:34.055Z,9.30
2023-04-16T12:08:06.011Z,9.30
2023-04-16T12:10:36.589Z,9.20
2023-04-16T12:13:14.875Z,9.20
2023-04-16T12:15:48.418Z,9.20
2023-04-16T12:18:17.790Z,9.20
2023-04-16T12:20:48.395Z,9.20
2023-04-16T12:23:27.979Z,9.30
2023-04-16T12:26:00.041Z,9.40
2023-04-16T12:28:31.427Z,9.40
2023-04-16T12:31:00.922Z,9.40
2023-04-16T12:33:29.609Z,9.40
2023-04-16T12:36:00.280Z,9.50
2023-04-16T12:38:30.161Z,9.60
2023-04-16T12:40:58.878Z,9.60
2023-04-16T12:43:27.885Z,9.50
2023-04-16T12:45:56.742Z,9.50
2023-04-16T12:48:25.762Z,9.50
2023-04-16T12:50:56.213Z,9.60
2023-04-16T12:53:26.238Z,9.60
2023-04-16T12:55:54.643Z,9.70
2023-04-16T12:58:23.713Z,9.80
2023-04-16T13:00:52.512Z,9.90
2023-04-16T13:03:22.150Z,10.00
2023-04-16T13:05:50.798Z,10.10
2023-04-16T13:08:19.483Z,10.00
2023-04-16T13:10:49.776Z,10.10
2023-04-16T13:13:19.689Z,10.10
2023-04-16T13:15:48.161Z,10.20
2023-04-16T13:18:16.710Z,10.20
2023-04-16T13:20:45.862Z,10.20
2023-04-16T13:23:14.575Z,10.20
2023-04-16T13:25:42.982Z,10.10
2023-04-16T13:28:13.077Z,10.10
2023-04-16T13:30:41.957Z,10.20
2023-04-16T13:33:10.738Z,10.20
2023-04-16T13:35:39.314Z,10.20
2023-04-16T13:38:07.868Z,10.30
2023-04-16T13:40:36.750Z,10.30
2023-04-16T13:43:07.243Z,10.30
2023-04-16T13:45:39.561Z,10.30
2023-04-16T13:48:08.100Z,10.20
2023-04-16T13:50:36.924Z,10.20
2023-04-16T13:53:06.587Z,10.20
2023-04-16T13:55:36.051Z,10.10
2023-04-16T13:58:05.017Z,10.10
2023-04-16T14:00:33.589Z,10.00
2023-04-16T14:03:06.316Z,10.10
2023-04-16T14:05:35.123Z,10.10
2023-04-16T14:08:03.999Z,10.20
2023-04-16T14:10:33.081Z,10.20
2023-04-16T14:13:01.738Z,10.30
2023-04-16T14:15:30.817Z,10.20
2023-04-16T14:17:59.399Z,10.30
2023-04-16T14:20:29.643Z,10.40
2023-04-16T14:22:58.753Z,10.50
2023-04-16T14:25:27.679Z,10.60
2023-04-16T14:27:56.446Z,10.60
2023-04-16T14:30:25.200Z,10.70
2023-04-16T14:32:54.122Z,10.90
2023-04-16T14:35:22.878Z,10.80
2023-04-16T14:37:53.313Z,10.80
2023-04-16T14:40:22.240Z,10.60
2023-04-16T14:42:51.182Z,10.70
2023-04-16T14:45:20.579Z,10.80
2023-04-16T14:47:50.435Z,11.00
2023-04-16T14:50:18.937Z,11.00
2023-04-16T14:52:47.276Z,10.90
2023-04-16T14:55:17.352Z,10.90
2023-04-16T14:57:45.880Z,10.80
2023-04-16T15:00:19.026Z,10.80
2023-04-16T15:02:48.476Z,10.80
2023-04-16T15:05:17.619Z,10.80
2023-04-16T15:07:46.326Z,10.90
2023-04-16T15:10:16.659Z,10.80
2023-04-16T15:12:46.539Z,10.80
2023-04-16T15:15:15.361Z,10.60
2023-04-16T15:17:46.015Z,10.60
2023-04-16T15:20:15.230Z,10.70
2023-04-16T15:22:43.740Z,10.70
2023-04-16T15:25:12.197Z,10.70
2023-04-16T15:27:43.985Z,10.80
2023-04-16T15:30:14.595Z,10.90
2023-04-16T15:32:43.428Z,10.90
2023-04-16T15:35:12.367Z,10.80
2023-04-16T15:37:41.007Z,10.80
2023-04-16T15:40:10.809Z,10.80
2023-04-16T15:42:39.704Z,10.90
2023-04-16T15:45:10.225Z,11.00
2023-04-16T15:47:41.514Z,10.90
2023-04-16T15:50:11.999Z,10.90
2023-04-16T15:52:41.560Z,10.80
2023-04-16T15:55:11.140Z,11.00
2023-04-16T15:57:39.956Z,11.10
2023-04-16T16:00:15.088Z,10.80
2023-04-16T16:02:44.891Z,10.60
2023-04-16T16:05:14.853Z,10.50
2023-04-16T16:07:44.061Z,10.40
2023-04-16T16:10:13.850Z,10.30
2023-04-16T16:12:42.935Z,10.40
2023-04-16T16:15:13.777Z,10.40
2023-04-16T16:17:42.450Z,10.40
2023-04-16T16:20:12.966Z,10.30
2023-04-16T16:22:43.318Z,10.30
2023-04-16T16:25:11.969Z,10.40
2023-04-16T16:27:42.429Z,10.30
2023-04-16T16:30:15.588Z,10.30
2023-04-16T16:32:44.750Z,10.20
2023-04-16T16:35:14.091Z,10.30
2023-04-16T16:37:42.964Z,10.20
2023-04-16T16:40:12.287Z,10.20
2023-04-16T16:42:40.947Z,10.10
2023-04-16T16:45:11.696Z,10.20
2023-04-16T16:47:41.756Z,10.30
2023-04-16T16:50:11.591Z,10.30
2023-04-16T16:52:40.449Z,10.20
2023-04-16T16:55:11.312Z,10.20
2023-04-16T16:57:40.116Z,10.20
2023-04-16T17:00:16.332Z,10.20
2023-04-16T17:02:46.986Z,10.30
2023-04-16T17:05:15.796Z,10.30
2023-04-16T17:07:44.571Z,10.30
2023-04-16T17:10:22.087Z,10.20
2023-04-16T17:12:52.121Z,10.20
2023-04-16T17:15:21.864Z,10.30
2023-04-16T17:17:51.990Z,10.30
2023-04-16T17:20:21.630Z,10.20
2023-04-16T17:22:51.283Z,10.20
2023-04-16T17:25:20.207Z,10.20
2023-04-16T17:27:48.903Z,10.20
2023-04-16T17:30:17.990Z,10.20
2023-04-16T17:32:46.566Z,10.20
2023-04-16T17:35:16.804Z,10.10
2023-04-16T17:37:45.554Z,10.20
2023-04-16T17:40:15.803Z,10.20
2023-04-16T17:42:44.419Z,10.20
2023-04-16T17:45:14.192Z,10.10
2023-04-16T17:47:44.705Z,10.20
2023-04-16T17:50:13.999Z,10.20
2023-04-16T17:52:44.847Z,10.20
2023-04-16T17:55:13.653Z,10.20
2023-04-16T17:57:42.350Z,10.10
2023-04-16T18:00:12.597Z,10.20
2023-04-16T18:02:42.345Z,10.20
2023-04-16T18:05:11.743Z,10.20
2023-04-16T18:07:40.815Z,10.20
2023-04-16T18:10:12.806Z,10.20
2023-04-16T18:12:41.916Z,10.20
2023-04-16T18:15:11.767Z,10.10
2023-04-16T18:17:40.601Z,10.10
2023-04-16T18:20:12.040Z,10.10
2023-04-16T18:22:40.623Z,10.10
2023-04-16T18:25:12.098Z,10.10
2023-04-16T18:27:41.326Z,10.10
2023-04-16T18:30:19.976Z,10.10
2023-04-16T18:33:25.462Z,10.10
2023-04-16T18:35:45.758Z,10.10
2023-04-16T18:38:23.010Z,10.10
2023-04-16T18:40:53.124Z,10.20
2023-04-16T18:43:21.746Z,10.10
2023-04-16T18:45:50.557Z,10.20
2023-04-16T18:48:19.664Z,10.10
2023-04-16T18:50:48.778Z,10.10
2023-04-16T18:53:17.836Z,10.10
2023-04-16T18:55:47.306Z,10.10
2023-04-16T18:58:17.476Z,10.10
2023-04-16T19:00:46.944Z,10.10
2023-04-16T19:03:17.149Z,10.10
2023-04-16T19:05:45.988Z,10.00
2023-04-16T19:08:14.799Z,10.00
2023-04-16T19:10:43.285Z,10.00
2023-04-16T19:13:14.258Z,10.10
2023-04-16T19:15:44.442Z,10.10
2023-04-16T19:18:13.022Z,10.10
2023-04-16T19:20:41.649Z,10.00
2023-04-16T19:23:13.433Z,10.00
2023-04-16T19:25:42.393Z,10.00
2023-04-16T19:28:10.961Z,9.90
2023-04-16T19:30:40.506Z,10.00
2023-04-16T19:33:10.814Z,10.00
2023-04-16T19:35:41.725Z,10.00
2023-04-16T19:38:11.011Z,9.90
2023-04-16T19:40:40.410Z,9.90
2023-04-16T19:43:09.039Z,9.80
2023-04-16T19:45:37.763Z,9.80
2023-04-16T19:48:06.485Z,9.80
2023-04-16T19:50:36.807Z,9.80
2023-04-16T19:53:05.802Z,9.80
2023-04-16T19:55:34.296Z,9.80
2023-04-16T19:58:06.558Z,9.80
2023-04-16T20:00:35.691Z,9.80
2023-04-16T20:03:04.577Z,9.90
2023-04-16T20:05:33.218Z,9.80
2023-04-16T20:08:14.880Z,9.80
2023-04-16T20:10:43.733Z,9.80
2023-04-16T20:13:13.808Z,9.80
2023-04-16T20:15:42.932Z,9.80
2023-04-16T20:18:12.966Z,9.80
2023-04-16T20:20:41.933Z,9.80
2023-04-16T20:23:12.080Z,9.80
2023-04-16T20:25:43.167Z,9.80
2023-04-16T20:28:11.985Z,9.80
2023-04-16T20:30:40.910Z,9.80
2023-04-16T20:33:10.247Z,9.80
2023-04-16T20:35:38.842Z,9.80
2023-04-16T20:38:07.585Z,9.70
2023-04-16T20:40:39.163Z,9.70
2023-04-16T20:43:10.526Z,9.70
2023-04-16T20:45:41.098Z,9.60
2023-04-16T20:48:09.924Z,9.70
2023-04-16T20:50:39.928Z,9.70
2023-04-16T20:53:08.440Z,9.70
2023-04-16T20:55:38.454Z,9.70
2023-04-16T20:58:07.085Z,9.70
2023-04-16T21:00:36.441Z,9.70
2023-04-16T21:03:05.280Z,9.70
2023-04-16T21:05:34.303Z,9.60
2023-04-16T21:08:03.496Z,9.70
2023-04-16T21:10:32.011Z,9.60
2023-04-16T21:13:02.261Z,9.60
2023-04-16T21:15:30.731Z,9.70
2023-04-16T21:17:59.179Z,9.60
2023-04-16T21:20:30.372Z,9.60
2023-04-16T21:23:00.092Z,9.60
2023-04-16T21:25:29.347Z,9.60
2023-04-16T21:27:58.236Z,9.60
2023-04-16T21:30:28.423Z,9.60
2023-04-16T21:32:57.669Z,9.60
2023-04-16T21:35:26.469Z,9.50
2023-04-16T21:37:55.461Z,9.50
2023-04-16T21:40:24.222Z,9.50
2023-04-16T21:42:52.745Z,9.50
2023-04-16T21:45:21.648Z,9.50
2023-04-16T21:47:52.217Z,9.50
2023-04-16T21:50:21.312Z,9.50
2023-04-16T21:52:50.152Z,9.50
2023-04-16T21:55:18.868Z,9.50
2023-04-16T21:57:47.369Z,9.40
2023-04-16T22:00:17.666Z,9.40
2023-04-16T22:02:46.692Z,9.40
2023-04-16T22:05:17.700Z,9.40
2023-04-16T22:07:46.414Z,9.40
2023-04-16T22:10:15.625Z,9.40
2023-04-16T22:12:45.136Z,9.40
2023-04-16T22:15:14.891Z,9.40
2023-04-16T22:17:43.707Z,9.30
2023-04-16T22:20:13.604Z,9.30
2023-04-16T22:22:44.760Z,9.30
2023-04-16T22:25:14.085Z,9.30
2023-04-16T22:27:42.891Z,9.30
2023-04-16T22:30:12.301Z,9.30
2023-04-16T22:32:40.755Z,9.30
2023-04-16T22:35:10.311Z,9.30
2023-04-16T22:37:39.082Z,9.20
2023-04-16T22:40:13.753Z,9.20
2023-04-16T22:42:42.701Z,9.20
2023-04-16T22:45:12.863Z,9.20
2023-04-16T22:47:41.759Z,9.20
2023-04-16T22:50:12.141Z,9.20
2023-04-16T22:52:40.589Z,9.20
2023-04-16T22:55:11.152Z,9.20
2023-04-16T22:57:40.280Z,9.20
2023-04-16T23:00:15.572Z,9.20
2023-04-16T23:02:45.048Z,9.30
2023-04-16T23:05:14.201Z,9.20
2023-04-16T23:07:43.148Z,9.20
2023-04-16T23:10:13.801Z,9.20
2023-04-16T23:12:42.883Z,9.20
2023-04-16T23:15:11.973Z,9.20
2023-04-16T23:17:40.549Z,9.20
2023-04-16T23:20:10.453Z,9.20
2023-04-16T23:22:38.986Z,9.20
2023-04-16T23:25:08.844Z,9.20
2023-04-16T23:27:39.163Z,9.20
2023-04-16T23:30:08.826Z,9.30
2023-04-16T23:32:37.702Z,9.20
2023-04-16T23:35:06.728Z,9.20
2023-04-16T23:37:35.718Z,9.20
2023-04-16T23:40:05.041Z,9.20
2023-04-16T23:42:33.533Z,9.20
2023-04-16T23:45:04.529Z,9.20
2023-04-16T23:47:33.350Z,9.20
2023-04-16T23:50:02.282Z,9.20
2023-04-16T23:52:30.962Z,9.20
2023-04-16T23:54:59.902Z,9.20
2023-04-16T23:57:28.304Z,9.20
2023-04-16T23:59:56.898Z,9.10
